Time;durP1;ratioP1;P1;durP2;ratioP2;P2;SDS_P1;SDS_P2;PMS_P1;PMS_P2;Temp;Humidity;BMP_temperature;BMP_pressure;BME280_temperature;BME280_humidity;BME280_pressure;Samples;Min_cycle;Max_cycle;Signal;HPM_P1;HPM_P2
2022/11/12 00:01:19;;;;;;;87.80;68.40;;;;;;;5.99;71.89;101908.09;108587;1274;21927;-77
2022/11/12 00:04:08;;;;;;;90.00;71.60;;;;;;;5.98;71.77;101904.08;108475;1274;21957;-79
2022/11/12 00:06:56;;;;;;;88.90;71.40;;;;;;;5.94;71.78;101904.74;108619;1275;21961;-78
2022/11/12 00:09:44;;;;;;;78.10;65.00;;;;;;;5.91;71.86;101906.27;108161;1280;23022;-77
2022/11/12 00:12:32;;;;;;;82.80;65.10;;;;;;;5.88;71.88;101906.94;108166;1280;21992;-77
2022/11/12 00:15:22;;;;;;;80.40;62.20;;;;;;;5.84;71.90;101905.88;108080;1280;23679;-79
2022/11/12 00:18:10;;;;;;;75.70;58.60;;;;;;;5.82;71.94;101905.35;108144;1280;21965;-77
2022/11/12 00:20:58;;;;;;;69.30;53.20;;;;;;;5.80;72.01;101901.70;108157;1280;21948;-78
2022/11/12 00:23:46;;;;;;;61.00;46.50;;;;;;;5.79;72.19;101902.73;108230;1280;21951;-78
2022/11/12 00:26:47;;;;;;;55.20;42.90;;;;;;;5.77;72.25;101899.09;108122;1280;23092;-78
2022/11/12 00:29:35;;;;;;;56.40;42.00;;;;;;;5.77;72.36;101899.26;108593;1275;23605;-78
2022/11/12 00:32:23;;;;;;;50.00;38.10;;;;;;;5.77;72.52;101900.65;108562;1274;21937;-78
2022/11/12 00:35:11;;;;;;;48.10;33.00;;;;;;;5.79;72.57;101900.66;108603;1274;21937;-78
2022/11/12 00:38:00;;;;;;;43.50;31.00;;;;;;;5.80;72.74;101901.36;108494;1275;22284;-78
2022/11/12 00:40:48;;;;;;;36.80;28.00;;;;;;;5.83;72.87;101897.92;108526;1275;23812;-79
2022/11/12 00:43:36;;;;;;;34.60;25.10;;;;;;;5.87;73.10;101898.99;108565;1272;23120;-79
2022/11/12 00:46:29;;;;;;;31.90;22.50;;;;;;;5.94;73.39;101902.50;108805;1274;21949;-80
2022/11/12 00:49:19;;;;;;;28.00;21.20;;;;;;;6.02;73.65;101902.55;108545;1274;22020;-79
2022/11/12 00:52:07;;;;;;;26.10;20.10;;;;;;;6.12;73.84;101901.07;108567;1275;24474;-81
2022/11/12 00:54:59;;;;;;;22.80;17.80;;;;;;;6.21;74.06;101903.02;108757;1277;22159;-80
2022/11/12 00:57:47;;;;;;;27.70;19.70;;;;;;;6.31;74.17;101905.30;108559;1275;21945;-78
2022/11/12 01:00:38;;;;;;;24.90;19.60;;;;;;;6.39;74.33;101899.64;108500;1274;22191;-80
2022/11/12 01:03:27;;;;;;;26.40;18.20;;;;;;;6.46;74.27;101899.15;108707;1269;21939;-79
2022/11/12 01:06:25;;;;;;;21.80;16.90;;;;;;;6.52;74.27;101899.68;108759;1275;21923;-80
2022/11/12 01:09:16;;;;;;;24.90;17.30;;;;;;;6.57;74.19;101902.30;108909;1274;23670;-79
2022/11/12 01:12:03;;;;;;;26.60;18.60;;;;;;;6.60;74.04;101903.52;108554;1274;22718;-80
2022/11/12 01:14:52;;;;;;;22.30;17.20;;;;;;;6.62;74.00;101901.98;108256;1280;22826;-79
2022/11/12 01:17:39;;;;;;;21.30;17.00;;;;;;;6.65;73.99;101900.27;108371;1280;24370;-78
2022/11/12 01:20:27;;;;;;;23.80;18.20;;;;;;;6.68;73.90;101905.46;108249;1280;22213;-78
2022/11/12 01:23:17;;;;;;;25.60;17.10;;;;;;;6.69;73.76;101906.33;108305;1281;21940;-81
2022/11/12 01:26:23;;;;;;;22.60;15.20;;;;;;;6.68;73.74;101907.70;108314;1284;21952;-83
2022/11/12 01:29:16;;;;;;;21.90;17.00;;;;;;;6.69;73.76;101910.30;108005;1283;21932;-79
2022/11/12 01:32:07;;;;;;;20.40;16.70;;;;;;;6.71;73.76;101907.72;108078;1277;21965;-78
2022/11/12 01:34:55;;;;;;;24.20;17.80;;;;;;;6.71;73.66;101904.42;108049;1283;22193;-79
2022/11/12 01:37:43;;;;;;;27.10;18.10;;;;;;;6.72;73.75;101905.29;107800;1278;21946;-79
2022/11/12 01:40:35;;;;;;;23.60;17.00;;;;;;;6.73;73.86;101904.79;107837;1283;22048;-79
2022/11/12 01:43:24;;;;;;;21.30;17.10;;;;;;;6.72;73.77;101902.70;107990;1283;21935;-79
2022/11/12 01:46:26;;;;;;;19.50;16.10;;;;;;;6.69;73.66;101901.14;108144;1283;23161;-78
2022/11/12 01:49:27;;;;;;;24.30;17.60;;;;;;;6.66;73.52;101902.85;108163;1276;21948;-78
2022/11/12 01:52:39;;;;;;;23.70;17.60;;;;;;;6.61;73.51;101903.19;108192;1278;23057;-79
2022/11/12 01:55:31;;;;;;;;;;;;;;;6.57;73.53;101903.69;108217;1280;22005;-78
2022/11/12 01:58:23;;;;;;;30.40;22.00;;;;;;;6.46;73.63;101903.98;108152;1280;21960;-78
2022/11/12 02:01:12;;;;;;;31.70;21.20;;;;;;;6.43;73.73;101909.85;108104;1280;22992;-78
2022/11/12 02:04:00;;;;;;;27.10;19.90;;;;;;;6.43;73.73;101906.92;108126;1280;23594;-78
2022/11/12 02:06:52;;;;;;;30.00;24.30;;;;;;;6.43;73.76;101909.00;107485;1279;21946;-78
2022/11/12 02:09:40;;;;;;;30.70;23.30;;;;;;;6.41;73.64;101907.26;107991;1289;22758;-80
2022/11/12 02:15:37;;;;;;;29.40;21.30;;;;;;;6.38;73.67;101910.54;107825;1286;24472;-80
2022/11/12 02:18:26;;;;;;;32.80;22.50;;;;;;;6.38;73.79;101910.36;107757;1286;23008;-80
2022/11/12 02:21:20;;;;;;;26.70;21.60;;;;;;;6.37;73.72;101908.80;108062;1286;21955;-80
2022/11/12 02:24:33;;;;;;;30.10;23.80;;;;;;;6.35;73.62;101911.39;108255;1281;21933;-80
2022/11/12 02:27:24;;;;;;;30.20;21.90;;;;;;;6.31;73.66;101912.23;107779;1286;21951;-80
2022/11/12 02:30:12;;;;;;;34.40;25.90;;;;;;;6.29;73.52;101916.38;107713;1286;22311;-80
2022/11/12 02:33:06;;;;;;;38.00;26.90;;;;;;;6.23;73.39;101919.27;108070;1283;23066;-81
2022/11/12 02:35:57;;;;;;;35.70;26.10;;;;;;;6.20;73.41;101925.14;107728;1286;21979;-80
2022/11/12 02:38:48;;;;;;;41.00;29.40;;;;;;;6.15;73.34;101927.02;107767;1286;23637;-80
2022/11/12 02:41:36;;;;;;;37.30;27.20;;;;;;;6.09;73.33;101926.45;107753;1286;22229;-80
2022/11/12 02:44:24;;;;;;;48.50;35.60;;;;;;;6.05;73.37;101926.27;107172;1294;21972;-80
2022/11/12 02:47:15;;;;;;;47.60;33.80;;;;;;;6.01;73.43;101925.20;107339;1294;23598;-80
2022/11/12 02:50:04;;;;;;;46.90;37.90;;;;;;;6.00;73.69;101922.78;106999;1294;21965;-79
2022/11/12 02:52:52;;;;;;;44.90;35.30;;;;;;;5.99;73.62;101929.16;107114;1293;22030;-78
2022/11/12 02:55:42;;;;;;;40.00;32.90;;;;;;;5.98;73.65;101931.22;107449;1291;21984;-78
2022/11/12 02:58:39;;;;;;;47.60;34.90;;;;;;;5.96;73.64;101929.13;107568;1288;22701;-79
2022/11/12 03:01:27;;;;;;;45.30;34.40;;;;;;;5.93;73.55;101927.20;107778;1286;22411;-80
2022/11/12 03:04:16;;;;;;;46.60;34.30;;;;;;;5.89;73.49;101932.34;108264;1278;23709;-79
2022/11/12 03:07:06;;;;;;;48.00;33.00;;;;;;;5.85;73.51;101927.83;108565;1274;23206;-79
2022/11/12 03:09:56;;;;;;;44.00;35.90;;;;;;;5.82;73.38;101933.69;108186;1280;21949;-79
2022/11/12 03:12:43;;;;;;;42.50;34.00;;;;;;;5.79;73.51;101934.17;108189;1280;23145;-78
2022/11/12 03:15:35;;;;;;;47.70;35.90;;;;;;;5.74;73.42;101937.77;108159;1280;22252;-78
2022/11/12 03:18:23;;;;;;;46.30;37.10;;;;;;;5.70;73.42;101937.91;107595;1286;23579;-79
2022/11/12 03:21:12;;;;;;;46.50;36.80;;;;;;;5.66;73.44;101939.79;107547;1286;21941;-80
2022/11/12 03:24:01;;;;;;;46.70;38.20;;;;;;;5.62;73.37;101942.35;107774;1286;21965;-78
2022/11/12 03:26:49;;;;;;;47.90;36.00;;;;;;;5.59;73.42;101946.80;107739;1285;23456;-79
2022/11/12 03:29:37;;;;;;;50.80;36.30;;;;;;;5.55;73.38;101948.14;108150;1280;21938;-79
2022/11/12 03:32:25;;;;;;;46.30;37.00;;;;;;;5.52;73.32;101952.44;108160;1278;21942;-78
2022/11/12 03:35:13;;;;;;;48.30;36.90;;;;;;;5.47;73.34;101950.52;107813;1286;21967;-78
2022/11/12 03:38:02;;;;;;;46.50;36.50;;;;;;;5.43;73.22;101954.78;107828;1286;22231;-79
2022/11/12 03:40:51;;;;;;;49.10;36.60;;;;;;;5.37;73.26;101954.55;107783;1286;23824;-78
2022/11/12 03:43:39;;;;;;;42.70;34.30;;;;;;;5.32;73.25;101956.06;107735;1286;21949;-78
2022/11/12 03:46:27;;;;;;;47.50;36.00;;;;;;;5.28;73.32;101953.44;107748;1286;21999;-78
2022/11/12 03:49:14;;;;;;;48.00;36.90;;;;;;;5.24;73.29;101952.70;107719;1285;23081;-78
2022/11/12 03:52:01;;;;;;;45.90;37.00;;;;;;;5.18;73.22;101953.52;107764;1286;23717;-78
2022/11/12 03:54:51;;;;;;;45.10;36.80;;;;;;;5.13;73.11;101952.42;107962;1286;23726;-78
2022/11/12 03:57:39;;;;;;;47.20;37.90;;;;;;;5.07;73.08;101954.95;108154;1280;21973;-78
2022/11/12 04:00:29;;;;;;;45.80;36.50;;;;;;;5.00;73.00;101956.60;108377;1281;21928;-78
2022/11/12 04:03:16;;;;;;;51.10;37.10;;;;;;;4.95;73.08;101954.99;108456;1280;22169;-78
2022/11/12 04:09:12;;;;;;;45.60;37.30;;;;;;;4.89;73.32;101956.98;108200;1280;23685;-79
2022/11/12 04:13:26;;;;;;;46.60;38.70;;;;;;;4.86;73.40;101957.83;108450;1279;21962;-80
2022/11/12 04:15:09;;;;;;;48.30;38.00;;;;;;;4.82;73.45;101963.13;108615;1278;23669;-79
2022/11/12 04:27:33;;;;;;;49.00;37.30;;;;;;;4.75;73.67;101958.20;107784;1286;21946;-79
2022/11/12 04:30:23;;;;;;;43.90;38.30;;;;;;;4.71;73.55;101956.27;107799;1287;21961;-78
2022/11/12 04:33:16;;;;;;;44.40;36.80;;;;;;;4.69;73.50;101957.28;107749;1287;23945;-78
2022/11/12 04:36:04;;;;;;;;;;;;;;;4.62;73.47;101951.85;107818;1286;24101;-79
2022/11/12 04:38:52;;;;;;;48.40;39.30;;;;;;;4.55;73.72;101960.55;108038;1285;23736;-79
2022/11/12 04:44:59;;;;;;;45.10;35.90;;;;;;;4.51;73.74;101963.09;107944;1288;23725;-79
2022/11/12 04:47:47;;;;;;;44.40;36.90;;;;;;;4.49;73.70;101962.73;107815;1284;23739;-78
2022/11/12 04:50:36;;;;;;;44.50;37.60;;;;;;;4.50;73.96;101961.35;108307;1279;24450;-78
2022/11/12 04:53:27;;;;;;;48.40;37.00;;;;;;;4.53;73.93;101963.98;108436;1278;24129;-78
2022/11/12 04:56:15;;;;;;;45.40;39.10;;;;;;;4.52;73.88;101956.89;108622;1273;21901;-79
2022/11/12 04:59:08;;;;;;;41.90;34.20;;;;;;;4.49;73.69;101958.75;108624;1278;22003;-79
2022/11/12 05:01:57;;;;;;;47.60;36.30;;;;;;;4.46;73.68;101957.16;108567;1279;21926;-80
2022/11/12 05:04:48;;;;;;;46.20;35.30;;;;;;;4.43;73.59;101957.46;108787;1278;21956;-80
2022/11/12 05:07:36;;;;;;;39.20;34.40;;;;;;;4.40;73.61;101965.17;108394;1282;22826;-79
2022/11/12 05:10:29;;;;;;;41.40;34.60;;;;;;;4.40;73.69;101965.52;108405;1280;23084;-80
2022/11/12 05:13:17;;;;;;;40.60;34.70;;;;;;;4.41;73.85;101960.88;108269;1280;22103;-79
2022/11/12 05:16:06;;;;;;;41.90;35.40;;;;;;;4.43;74.09;101960.91;108392;1280;22918;-79
2022/11/12 05:18:56;;;;;;;39.60;35.10;;;;;;;4.47;74.17;101959.26;108447;1282;24423;-80
2022/11/12 05:24:52;;;;;;;48.80;36.90;;;;;;;4.55;74.31;101967.80;108341;1269;21956;-78
2022/11/12 05:27:40;;;;;;;41.80;36.50;;;;;;;4.59;74.37;101970.09;108574;1278;21972;-78
2022/11/12 05:30:28;;;;;;;45.60;37.90;;;;;;;4.64;74.32;101972.04;108531;1273;21961;-78
2022/11/12 05:33:16;;;;;;;52.50;39.20;;;;;;;4.69;74.42;101975.55;108506;1278;22303;-78
2022/11/12 05:36:05;;;;;;;51.50;39.60;;;;;;;4.74;74.52;101975.11;108563;1278;24305;-79
2022/11/12 05:38:52;;;;;;;48.60;40.60;;;;;;;4.82;74.66;101976.75;108645;1278;23578;-79
2022/11/12 05:41:42;;;;;;;54.00;44.10;;;;;;;4.89;74.73;101982.02;108541;1278;21966;-79
2022/11/12 05:44:49;;;;;;;55.80;48.80;;;;;;;4.97;74.83;101982.79;108552;1278;23692;-79
2022/11/12 05:47:37;;;;;;;55.70;47.90;;;;;;;5.04;74.82;101991.16;108479;1278;22463;-78
2022/11/12 05:50:25;;;;;;;49.30;40.80;;;;;;;5.12;74.86;101995.73;108721;1278;22141;-78
2022/11/12 05:53:26;;;;;;;50.20;41.20;;;;;;;5.19;74.92;101994.60;108564;1279;21932;-78
2022/11/12 05:56:17;;;;;;;55.20;45.50;;;;;;;5.29;75.02;101993.65;108444;1278;21976;-78
2022/11/12 05:59:08;;;;;;;60.10;52.50;;;;;;;5.38;75.09;101998.41;108502;1278;22296;-79
2022/11/12 06:01:57;;;;;;;90.50;78.80;;;;;;;5.44;74.95;102002.27;108474;1278;23065;-79
2022/11/12 06:04:47;;;;;;;79.60;70.90;;;;;;;5.49;74.85;101999.21;108110;1283;23592;-79
2022/11/12 06:07:35;;;;;;;84.70;68.80;;;;;;;5.54;74.83;101996.50;108251;1283;23188;-78
2022/11/12 06:10:30;;;;;;;58.80;52.50;;;;;;;5.60;74.92;101997.41;108393;1281;21956;-79
2022/11/12 06:13:22;;;;;;;35.40;31.50;;;;;;;5.65;74.74;101993.82;108336;1282;21955;-79
2022/11/12 06:16:09;;;;;;;38.50;31.80;;;;;;;5.63;74.65;101997.61;108324;1281;21972;-78
2022/11/12 06:18:58;;;;;;;33.80;30.20;;;;;;;5.63;74.65;101999.69;108192;1284;21925;-77
2022/11/12 06:21:52;;;;;;;35.30;31.60;;;;;;;5.62;74.59;102004.67;108243;1278;24033;-77
2022/11/12 06:24:44;;;;;;;41.40;34.00;;;;;;;5.59;74.62;102011.23;108558;1274;21925;-77
2022/11/12 06:27:33;;;;;;;48.10;41.70;;;;;;;5.61;74.91;102009.86;108590;1275;21977;-78
2022/11/12 06:30:21;;;;;;;42.90;38.60;;;;;;;5.70;75.18;102011.34;108635;1276;23613;-79
2022/11/12 06:33:12;;;;;;;185.70;165.40;;;;;;;5.78;75.27;102007.25;108343;1280;23598;-78
2022/11/12 06:36:04;;;;;;;205.90;118.10;;;;;;;5.89;75.26;102012.35;108158;1278;22031;-76
2022/11/12 06:38:52;;;;;;;124.10;76.50;;;;;;;5.95;75.17;102017.95;108421;1278;23619;-77
2022/11/12 06:41:40;;;;;;;74.10;53.20;;;;;;;6.01;75.04;102013.86;108294;1278;21908;-77
2022/11/12 06:44:28;;;;;;;48.60;43.60;;;;;;;6.07;75.00;102015.30;107988;1285;22923;-78
2022/11/12 06:47:20;;;;;;;50.80;44.00;;;;;;;6.10;74.86;102010.13;107650;1288;21938;-77
2022/11/12 06:50:19;;;;;;;;;;;;;;;;;;;;;
2022/11/12 06:53:19;;;;;;;47.70;41.90;;;;;;;6.04;74.46;102008.70;108090;1285;23648;-76
2022/11/12 06:56:10;;;;;;;56.40;48.20;;;;;;;6.05;74.56;102010.25;107784;1287;21996;-76
2022/11/12 06:58:58;;;;;;;282.70;128.20;;;;;;;6.11;74.88;102015.66;107990;1283;23587;-76
2022/11/12 07:01:46;;;;;;;266.30;119.60;;;;;;;6.20;74.89;102016.08;108052;1283;22059;-77
2022/11/12 07:04:34;;;;;;;309.30;135.00;;;;;;;6.28;74.90;102013.71;108287;1275;23067;-77
2022/11/12 07:07:21;;;;;;;172.20;87.50;;;;;;;6.35;74.92;102010.98;108542;1275;23045;-77
2022/11/12 07:10:09;;;;;;;146.50;79.50;;;;;;;6.42;74.77;102010.52;108633;1276;21926;-78
2022/11/12 07:12:57;;;;;;;180.50;94.90;;;;;;;6.49;74.81;102013.48;108570;1278;21948;-78
2022/11/12 07:15:45;;;;;;;116.60;71.20;;;;;;;6.55;74.69;102013.70;108567;1266;21947;-78
2022/11/12 07:18:34;;;;;;;115.90;69.50;;;;;;;6.61;74.68;102013.72;108275;1279;22092;-77
2022/11/12 07:21:22;;;;;;;115.50;86.10;;;;;;;6.67;74.60;102010.81;108208;1281;23121;-77
2022/11/12 07:24:10;;;;;;;156.40;121.60;;;;;;;6.73;74.62;102011.88;108201;1281;21942;-77
2022/11/12 07:26:58;;;;;;;248.70;157.70;;;;;;;6.79;74.59;102017.96;108082;1275;22064;-77
2022/11/12 07:29:45;;;;;;;132.80;94.80;;;;;;;6.85;74.60;102021.27;107517;1283;22017;-76
2022/11/12 07:32:36;;;;;;;107.20;77.60;;;;;;;6.93;74.72;102021.83;107638;1288;23064;-75
2022/11/12 07:35:35;;;;;;;86.00;66.90;;;;;;;7.01;74.82;102023.24;107680;1282;22115;-74
2022/11/12 07:38:28;;;;;;;80.40;60.80;;;;;;;7.11;74.76;102027.25;108092;1283;23084;-74
2022/11/12 07:41:23;;;;;;;79.40;63.30;;;;;;;7.19;74.73;102027.46;108121;1282;22008;-76
2022/11/12 07:44:12;;;;;;;69.10;54.00;;;;;;;7.26;74.60;102028.17;108061;1283;21938;-77
2022/11/12 07:47:00;;;;;;;65.30;56.20;;;;;;;7.31;74.49;102033.73;108262;1278;23691;-77
2022/11/12 07:49:51;;;;;;;59.90;50.20;;;;;;;7.36;74.46;102033.05;108559;1275;24295;-80
2022/11/12 07:52:39;;;;;;;56.70;43.50;;;;;;;7.43;74.40;102035.49;108263;1278;23079;-76
2022/11/12 07:55:27;;;;;;;49.90;41.70;;;;;;;7.52;74.51;102031.87;107894;1286;21950;-77
2022/11/12 07:58:16;;;;;;;46.40;39.50;;;;;;;7.59;74.52;102027.02;107477;1291;23064;-80
2022/11/12 08:01:19;;;;;;;40.80;34.70;;;;;;;7.69;74.57;102024.45;107553;1289;23729;-80
2022/11/12 08:04:10;;;;;;;37.90;29.20;;;;;;;7.78;74.64;102025.49;107524;1289;21992;-80
2022/11/12 08:06:58;;;;;;;34.70;26.50;;;;;;;7.88;74.61;102025.48;107528;1289;21925;-78
2022/11/12 08:09:46;;;;;;;42.60;38.30;;;;;;;7.98;74.65;102025.48;107446;1290;22528;-80
2022/11/12 08:12:33;;;;;;;32.00;28.60;;;;;;;8.10;74.63;102026.35;107886;1283;23113;-80
2022/11/12 08:15:21;;;;;;;28.10;21.30;;;;;;;8.21;74.67;102025.80;108376;1276;23142;-78
2022/11/12 08:18:08;;;;;;;24.60;19.60;;;;;;;8.32;74.61;102031.70;108557;1275;22760;-78
2022/11/12 08:21:02;;;;;;;24.80;19.80;;;;;;;8.42;74.60;102033.61;108561;1274;21980;-77
2022/11/12 08:23:50;;;;;;;25.60;20.40;;;;;;;8.53;74.54;102034.11;108660;1273;23729;-77
2022/11/12 08:26:38;;;;;;;20.30;18.00;;;;;;;8.64;74.51;102030.95;108551;1275;22104;-77
2022/11/12 08:29:26;;;;;;;25.40;19.40;;;;;;;8.76;74.50;102032.66;108538;1269;21975;-77
2022/11/12 08:32:14;;;;;;;18.60;16.60;;;;;;;8.87;74.32;102034.88;108626;1274;22150;-78
2022/11/12 08:35:02;;;;;;;22.50;16.20;;;;;;;8.89;73.97;102032.27;108596;1275;23701;-78
2022/11/12 08:37:50;;;;;;;17.70;16.00;;;;;;;8.99;73.89;102044.02;108672;1275;21961;-76
2022/11/12 08:40:39;;;;;;;18.70;16.70;;;;;;;9.06;73.85;102042.09;108711;1275;23045;-78
2022/11/12 08:43:26;;;;;;;20.70;16.20;;;;;;;9.13;73.62;102042.58;108731;1275;22989;-78
2022/11/12 08:46:14;;;;;;;20.90;16.80;;;;;;;9.20;73.50;102047.92;108704;1275;23007;-77
2022/11/12 08:49:02;;;;;;;24.10;17.60;;;;;;;9.28;73.40;102049.44;108731;1274;21938;-79
2022/11/12 08:51:50;;;;;;;20.60;16.60;;;;;;;9.36;73.28;102047.66;108592;1264;24325;-78
2022/11/12 08:54:38;;;;;;;23.50;17.40;;;;;;;9.45;73.21;102050.23;108584;1274;21931;-80
2022/11/12 08:57:26;;;;;;;20.60;18.10;;;;;;;9.52;73.02;102053.13;108712;1274;22287;-79
2022/11/12 09:00:15;;;;;;;41.70;28.50;;;;;;;9.58;72.84;102056.23;108597;1273;23048;-80
2022/11/12 09:03:06;;;;;;;31.60;24.20;;;;;;;9.65;72.82;102059.31;108841;1275;23693;-80
2022/11/12 09:06:07;;;;;;;33.70;27.30;;;;;;;9.74;72.88;102062.73;108958;1274;21922;-80
2022/11/12 09:08:54;;;;;;;35.90;26.10;;;;;;;9.81;72.55;102059.20;108615;1274;21941;-79
2022/11/12 09:11:42;;;;;;;29.50;25.70;;;;;;;9.86;72.24;102062.11;108547;1274;21933;-79
2022/11/12 09:14:30;;;;;;;31.60;21.40;;;;;;;9.91;72.14;102057.21;108507;1268;22301;-79
2022/11/12 09:17:17;;;;;;;27.70;21.00;;;;;;;9.97;71.97;102059.78;108609;1274;22008;-80
2022/11/12 09:20:05;;;;;;;21.60;18.00;;;;;;;10.01;71.77;102063.58;108326;1280;21987;-80
2022/11/12 09:23:11;;;;;;;19.10;17.10;;;;;;;10.05;71.68;102066.85;108299;1280;21941;-80
2022/11/12 09:26:00;;;;;;;20.80;18.50;;;;;;;10.07;71.45;102064.22;108227;1280;23775;-80
2022/11/12 09:28:51;;;;;;;20.80;17.60;;;;;;;10.10;71.35;102065.58;108452;1280;21951;-81
2022/11/12 09:31:45;;;;;;;26.40;22.40;;;;;;;10.15;71.26;102070.05;108599;1279;23191;-81
2022/11/12 09:34:48;;;;;;;25.30;19.80;;;;;;;10.21;71.15;102068.43;108148;1281;21935;-80
2022/11/12 09:37:39;;;;;;;20.10;17.70;;;;;;;10.25;70.97;102069.81;108671;1274;21946;-79
2022/11/12 09:40:54;;;;;;;;;;;;;;;;;;;;;
2022/11/12 09:44:09;;;;;;;22.00;17.10;;;;;;;10.30;70.79;102069.41;108601;1280;23098;-80
2022/11/12 09:47:19;;;;;;;30.70;19.60;;;;;;;10.33;70.58;102067.83;108598;1279;23632;-81
2022/11/12 09:50:20;;;;;;;24.60;19.20;;;;;;;10.34;70.37;102064.53;108028;1284;21977;-80
2022/11/12 09:53:25;;;;;;;22.70;19.80;;;;;;;10.40;70.39;102073.00;107475;1286;23113;-79
2022/11/12 09:56:20;;;;;;;34.20;25.90;;;;;;;10.46;70.42;102079.91;107344;1294;21959;-79
2022/11/12 09:59:15;;;;;;;30.40;27.20;;;;;;;10.48;70.11;102083.20;107147;1294;22000;-79
2022/11/12 10:02:22;;;;;;;31.70;28.10;;;;;;;10.45;69.95;102080.79;107472;1288;23691;-79
2022/11/12 10:05:34;;;;;;;34.80;28.20;;;;;;;10.48;70.20;102083.01;107670;1289;21943;-79
2022/11/12 10:08:38;;;;;;;30.00;25.80;;;;;;;10.52;70.23;102075.65;108154;1280;22064;-80
2022/11/12 10:18:45;;;;;;;34.20;26.00;;;;;;;10.48;70.11;102077.62;108642;1274;23552;-80
2022/11/12 10:21:55;;;;;;;24.70;21.50;;;;;;;10.51;70.14;102079.33;108645;1274;23088;-80
2022/11/12 10:24:44;;;;;;;26.30;22.00;;;;;;;10.53;70.08;102071.83;108748;1266;21940;-80
2022/11/12 10:27:39;;;;;;;34.20;25.00;;;;;;;10.54;69.83;102073.21;108548;1274;21932;-80
2022/11/12 10:30:26;;;;;;;27.40;22.30;;;;;;;10.56;69.82;102072.51;108685;1275;22052;-80
2022/11/12 10:33:15;;;;;;;37.20;26.60;;;;;;;10.59;69.84;102076.65;108581;1272;21970;-80
2022/11/12 10:36:34;;;;;;;26.50;23.70;;;;;;;10.64;69.89;102080.60;108698;1274;22284;-80
2022/11/12 10:39:37;;;;;;;23.50;18.00;;;;;;;10.65;69.79;102077.61;108675;1274;21956;-80
2022/11/12 10:42:25;;;;;;;28.10;20.50;;;;;;;10.68;69.79;102078.98;108406;1280;24620;-80
2022/11/12 10:45:21;;;;;;;22.60;19.30;;;;;;;10.70;69.52;102076.88;108142;1280;23054;-79
2022/11/12 10:48:27;;;;;;;24.30;20.00;;;;;;;10.66;69.40;102082.48;108376;1278;21940;-79
2022/11/12 10:51:32;;;;;;;23.00;20.40;;;;;;;10.62;69.37;102078.35;108130;1282;23010;-80
2022/11/12 10:54:27;;;;;;;24.80;20.70;;;;;;;10.64;69.59;102072.94;107966;1284;22597;-80
2022/11/12 10:57:26;;;;;;;23.60;21.20;;;;;;;10.67;69.59;102069.77;108130;1282;21966;-80
2022/11/12 11:00:17;;;;;;;22.30;19.90;;;;;;;10.67;69.38;102071.15;108197;1278;22027;-80
2022/11/12 11:03:34;;;;;;;31.60;21.40;;;;;;;10.68;69.31;102074.45;108486;1278;21944;-80
2022/11/12 11:06:26;;;;;;;24.70;20.50;;;;;;;10.69;69.42;102072.02;108456;1278;21946;-80
2022/11/12 11:09:17;;;;;;;24.80;20.20;;;;;;;10.70;69.30;102073.21;108574;1275;23672;-80
2022/11/12 11:12:26;;;;;;;28.10;22.50;;;;;;;10.69;69.30;102068.17;108538;1274;24342;-80
2022/11/12 11:15:21;;;;;;;25.90;22.50;;;;;;;10.69;69.24;102070.09;108572;1274;23694;-80
2022/11/12 11:18:11;;;;;;;26.30;23.00;;;;;;;10.70;69.19;102074.43;108560;1274;21997;-80
2022/11/12 11:21:12;;;;;;;37.60;33.10;;;;;;;10.71;69.15;102078.60;108700;1275;22435;-80
2022/11/12 11:24:32;;;;;;;23.20;20.30;;;;;;;10.69;68.96;102079.84;108787;1274;23008;-80
2022/11/12 11:27:33;;;;;;;23.90;21.40;;;;;;;10.66;68.86;102080.74;108669;1274;23583;-80
2022/11/12 11:30:22;;;;;;;24.50;21.60;;;;;;;10.61;68.68;102075.77;108667;1274;21955;-80
2022/11/12 11:33:57;;;;;;;27.30;22.90;;;;;;;10.57;68.57;102071.43;108237;1280;21932;-79
2022/11/12 11:37:06;;;;;;;27.30;24.40;;;;;;;10.54;68.65;102071.47;108413;1280;21949;-80
2022/11/12 11:40:25;;;;;;;26.00;23.30;;;;;;;10.53;68.52;102069.05;108274;1280;23042;-80
2022/11/12 11:43:35;;;;;;;27.20;23.30;;;;;;;10.49;68.36;102072.91;108239;1280;21937;-79
2022/11/12 11:46:35;;;;;;;28.50;24.20;;;;;;;10.50;68.42;102076.90;107605;1280;1161120;-80
2022/11/12 11:50:18;;;;;;;27.10;24.20;;;;;;;10.53;68.39;102081.39;108215;1280;21946;-80
2022/11/12 11:53:25;;;;;;;28.30;25.30;;;;;;;10.54;68.39;102082.08;108668;1274;21940;-80
2022/11/12 11:56:29;;;;;;;25.40;22.90;;;;;;;10.55;68.26;102077.38;108570;1274;24267;-80
2022/11/12 12:00:00;;;;;;;28.90;25.90;;;;;;;10.52;68.16;102071.13;108961;1275;21941;-79
2022/11/12 12:03:18;;;;;;;43.00;29.00;;;;;;;10.49;68.21;102070.31;108613;1274;21922;-79
2022/11/12 12:06:17;;;;;;;31.50;28.30;;;;;;;10.46;68.24;102069.46;108695;1274;21915;-79
2022/11/12 12:09:54;;;;;;;31.20;27.90;;;;;;;10.47;68.27;102078.33;108694;1274;21949;-79
2022/11/12 12:13:32;;;;;;;35.50;31.70;;;;;;;10.46;68.16;102070.68;108270;1280;21954;-79
2022/11/12 12:16:46;;;;;;;36.50;32.70;;;;;;;10.45;68.08;102074.69;108399;1280;22301;-78
2022/11/12 12:20:16;;;;;;;37.00;33.50;;;;;;;10.44;68.02;102075.73;108334;1279;21940;-79
2022/11/12 12:23:36;;;;;;;37.70;34.00;;;;;;;10.43;68.16;102071.94;108273;1280;22953;-78
2022/11/12 12:26:41;;;;;;;38.80;34.80;;;;;;;10.43;68.04;102077.67;108324;1280;21981;-79
2022/11/12 12:30:05;;;;;;;36.00;31.70;;;;;;;10.44;67.91;102070.00;108237;1280;21952;-80
2022/11/12 12:33:06;;;;;;;46.30;35.00;;;;;;;10.44;67.87;102077.84;108468;1278;21928;-80
2022/11/12 12:36:00;;;;;;;39.50;35.60;;;;;;;10.44;67.81;102075.23;108430;1278;23021;-80
2022/11/12 12:39:22;;;;;;;41.40;36.40;;;;;;;10.42;67.75;102077.50;108457;1278;23003;-79
2022/11/12 12:42:21;;;;;;;38.60;34.50;;;;;;;10.39;67.80;102080.83;108476;1278;21929;-80
2022/11/12 12:45:47;;;;;;;40.60;36.60;;;;;;;10.37;67.80;102078.23;108506;1272;22083;-79
2022/11/12 12:48:40;;;;;;;38.40;34.70;;;;;;;10.34;67.78;102074.63;108465;1278;22016;-80
2022/11/12 12:51:31;;;;;;;39.60;35.50;;;;;;;10.36;67.70;102079.48;108457;1275;23655;-79
2022/11/12 12:54:34;;;;;;;38.40;34.60;;;;;;;10.38;67.70;102073.90;108639;1274;22349;-79
2022/11/12 12:57:40;;;;;;;37.30;33.50;;;;;;;10.39;67.63;102061.70;108599;1275;21952;-78
2022/11/12 13:00:46;;;;;;;38.50;34.40;;;;;;;10.38;67.73;102061.36;108471;1273;21940;-79
2022/11/12 13:03:43;;;;;;;39.60;35.80;;;;;;;10.37;67.68;102065.89;108552;1276;22731;-79
2022/11/12 13:06:39;;;;;;;44.30;39.70;;;;;;;10.36;67.67;102061.38;108529;1275;21914;-80
2022/11/12 13:09:27;;;;;;;42.90;38.40;;;;;;;10.38;67.70;102068.16;108414;1275;21957;-78
2022/11/12 13:15:15;;;;;;;45.00;40.10;;;;;;;10.41;67.71;102061.85;108545;1275;21933;-78
2022/11/12 13:18:09;;;;;;;44.80;40.10;;;;;;;10.40;67.65;102063.77;108368;1274;22240;-79
2022/11/12 13:21:13;;;;;;;40.30;36.00;;;;;;;10.35;67.56;102064.17;108482;1275;22193;-79
2022/11/12 13:24:05;;;;;;;35.10;31.40;;;;;;;10.31;67.45;102056.38;108532;1277;21999;-79
2022/11/12 13:26:56;;;;;;;38.90;35.00;;;;;;;10.27;67.36;102057.09;108539;1275;21941;-80
2022/11/12 13:29:46;;;;;;;37.60;33.30;;;;;;;10.26;67.44;102061.98;108524;1280;21959;-79
2022/11/12 13:32:43;;;;;;;40.40;34.30;;;;;;;10.25;67.39;102062.84;108247;1280;21959;-79
2022/11/12 13:35:33;;;;;;;40.30;32.20;;;;;;;10.25;67.43;102062.31;107927;1286;22177;-80
2022/11/12 13:38:21;;;;;;;40.20;36.00;;;;;;;10.26;67.43;102060.23;107887;1286;21957;-81
2022/11/12 13:42:46;;;;;;;39.00;35.00;;;;;;;10.26;67.35;102057.61;107158;1294;24456;-79
2022/11/12 13:44:30;;;;;;;40.70;36.30;;;;;;;10.24;67.53;102056.41;107480;1288;22011;-80